sensor_id;sensor_type;location;lat;lon;timestamp;P1;durP1;ratioP1;P2;durP2;ratioP2
5153;SDS011;2595;53.584;10.084;2023-03-14T00:01:52;4.60;;;3.13;;
5153;SDS011;2595;53.584;10.084;2023-03-14T00:04:18;3.20;;;2.83;;
5153;SDS011;2595;53.584;10.084;2023-03-14T00:06:44;3.30;;;3.00;;
5153;SDS011;2595;53.584;10.084;2023-03-14T00:09:11;6.00;;;3.17;;
5153;SDS011;2595;53.584;10.084;2023-03-14T00:11:37;6.53;;;3.27;;
5153;SDS011;2595;53.584;10.084;2023-03-14T00:14:03;3.30;;;3.10;;
5153;SDS011;2595;53.584;10.084;2023-03-14T00:16:28;3.60;;;3.40;;
5153;SDS011;2595;53.584;10.084;2023-03-14T00:18:54;3.80;;;3.23;;
5153;SDS011;2595;53.584;10.084;2023-03-14T00:21:20;3.80;;;3.30;;
5153;SDS011;2595;53.584;10.084;2023-03-14T00:23:45;3.10;;;2.80;;
5153;SDS011;2595;53.584;10.084;2023-03-14T00:26:17;21.17;;;5.03;;
5153;SDS011;2595;53.584;10.084;2023-03-14T00:28:44;4.20;;;2.70;;
5153;SDS011;2595;53.584;10.084;2023-03-14T00:31:11;10.10;;;2.97;;
5153;SDS011;2595;53.584;10.084;2023-03-14T00:33:39;3.70;;;2.70;;
5153;SDS011;2595;53.584;10.084;2023-03-14T00:36:05;4.20;;;2.87;;
5153;SDS011;2595;53.584;10.084;2023-03-14T00:38:35;4.20;;;3.00;;
5153;SDS011;2595;53.584;10.084;2023-03-14T00:41:08;3.37;;;3.00;;
5153;SDS011;2595;53.584;10.084;2023-03-14T00:43:36;5.03;;;3.17;;
5153;SDS011;2595;53.584;10.084;2023-03-14T00:46:02;3.47;;;3.17;;
5153;SDS011;2595;53.584;10.084;2023-03-14T00:48:29;6.90;;;3.17;;
5153;SDS011;2595;53.584;10.084;2023-03-14T00:50:54;3.30;;;2.40;;
5153;SDS011;2595;53.584;10.084;2023-03-14T00:53:20;3.57;;;2.90;;
5153;SDS011;2595;53.584;10.084;2023-03-14T00:55:46;4.57;;;3.47;;
5153;SDS011;2595;53.584;10.084;2023-03-14T00:58:14;3.67;;;2.30;;
5153;SDS011;2595;53.584;10.084;2023-03-14T01:00:41;3.23;;;3.03;;
5153;SDS011;2595;53.584;10.084;2023-03-14T01:03:07;3.40;;;2.80;;
5153;SDS011;2595;53.584;10.084;2023-03-14T01:05:33;5.20;;;2.97;;
5153;SDS011;2595;53.584;10.084;2023-03-14T01:07:59;6.43;;;3.97;;
5153;SDS011;2595;53.584;10.084;2023-03-14T01:10:25;7.30;;;3.53;;
5153;SDS011;2595;53.584;10.084;2023-03-14T01:12:51;9.43;;;2.40;;
5153;SDS011;2595;53.584;10.084;2023-03-14T01:15:16;6.20;;;3.30;;
5153;SDS011;2595;53.584;10.084;2023-03-14T01:17:42;6.37;;;2.50;;
5153;SDS011;2595;53.584;10.084;2023-03-14T01:20:09;7.40;;;3.03;;
5153;SDS011;2595;53.584;10.084;2023-03-14T01:22:36;5.53;;;2.97;;
5153;SDS011;2595;53.584;10.084;2023-03-14T01:25:05;7.03;;;4.37;;
5153;SDS011;2595;53.584;10.084;2023-03-14T01:27:32;3.97;;;3.00;;
5153;SDS011;2595;53.584;10.084;2023-03-14T01:29:57;3.43;;;2.87;;
5153;SDS011;2595;53.584;10.084;2023-03-14T01:32:23;6.67;;;2.57;;
5153;SDS011;2595;53.584;10.084;2023-03-14T01:34:50;4.20;;;3.00;;
5153;SDS011;2595;53.584;10.084;2023-03-14T01:37:16;3.97;;;2.97;;
5153;SDS011;2595;53.584;10.084;2023-03-14T01:39:41;3.90;;;2.93;;
5153;SDS011;2595;53.584;10.084;2023-03-14T01:42:07;5.00;;;3.10;;
5153;SDS011;2595;53.584;10.084;2023-03-14T01:47:21;3.73;;;3.53;;
5153;SDS011;2595;53.584;10.084;2023-03-14T01:49:48;8.43;;;3.60;;
5153;SDS011;2595;53.584;10.084;2023-03-14T01:52:25;4.80;;;3.43;;
5153;SDS011;2595;53.584;10.084;2023-03-14T01:55:09;6.07;;;2.90;;
5153;SDS011;2595;53.584;10.084;2023-03-14T01:57:42;8.70;;;3.20;;
5153;SDS011;2595;53.584;10.084;2023-03-14T02:00:14;3.90;;;3.60;;
5153;SDS011;2595;53.584;10.084;2023-03-14T02:02:46;4.80;;;2.73;;
5153;SDS011;2595;53.584;10.084;2023-03-14T02:05:32;6.13;;;3.13;;
5153;SDS011;2595;53.584;10.084;2023-03-14T02:08:00;5.07;;;3.23;;
5153;SDS011;2595;53.584;10.084;2023-03-14T02:10:28;6.47;;;4.00;;
5153;SDS011;2595;53.584;10.084;2023-03-14T02:12:59;9.13;;;3.70;;
5153;SDS011;2595;53.584;10.084;2023-03-14T02:15:27;3.50;;;3.20;;
5153;SDS011;2595;53.584;10.084;2023-03-14T02:17:53;7.57;;;3.20;;
5153;SDS011;2595;53.584;10.084;2023-03-14T02:20:24;3.47;;;3.17;;
5153;SDS011;2595;53.584;10.084;2023-03-14T02:23:10;6.67;;;3.10;;
5153;SDS011;2595;53.584;10.084;2023-03-14T02:25:46;4.80;;;3.60;;
5153;SDS011;2595;53.584;10.084;2023-03-14T02:28:19;2.83;;;2.63;;
5153;SDS011;2595;53.584;10.084;2023-03-14T02:30:46;6.20;;;3.40;;
5153;SDS011;2595;53.584;10.084;2023-03-14T02:33:16;3.93;;;3.47;;
5153;SDS011;2595;53.584;10.084;2023-03-14T02:38:36;3.90;;;3.60;;
5153;SDS011;2595;53.584;10.084;2023-03-14T02:41:17;5.63;;;3.57;;
5153;SDS011;2595;53.584;10.084;2023-03-14T02:43:43;3.50;;;2.60;;
5153;SDS011;2595;53.584;10.084;2023-03-14T02:46:13;4.47;;;2.87;;
5153;SDS011;2595;53.584;10.084;2023-03-14T02:48:45;3.33;;;3.13;;
5153;SDS011;2595;53.584;10.084;2023-03-14T02:51:12;6.17;;;3.47;;
5153;SDS011;2595;53.584;10.084;2023-03-14T02:53:39;4.27;;;2.80;;
5153;SDS011;2595;53.584;10.084;2023-03-14T02:56:06;5.63;;;3.23;;
5153;SDS011;2595;53.584;10.084;2023-03-14T02:58:32;4.47;;;4.03;;
5153;SDS011;2595;53.584;10.084;2023-03-14T03:00:58;3.80;;;3.60;;
5153;SDS011;2595;53.584;10.084;2023-03-14T03:03:23;4.30;;;3.87;;
5153;SDS011;2595;53.584;10.084;2023-03-14T03:05:50;3.30;;;3.00;;
5153;SDS011;2595;53.584;10.084;2023-03-14T03:08:17;4.27;;;3.20;;
5153;SDS011;2595;53.584;10.084;2023-03-14T03:10:44;7.30;;;3.73;;
5153;SDS011;2595;53.584;10.084;2023-03-14T03:13:10;8.63;;;4.00;;
5153;SDS011;2595;53.584;10.084;2023-03-14T03:15:35;7.40;;;3.50;;
5153;SDS011;2595;53.584;10.084;2023-03-14T03:18:01;3.43;;;2.67;;
5153;SDS011;2595;53.584;10.084;2023-03-14T03:20:27;4.50;;;3.17;;
5153;SDS011;2595;53.584;10.084;2023-03-14T03:22:52;3.90;;;3.20;;
5153;SDS011;2595;53.584;10.084;2023-03-14T03:25:18;5.80;;;3.37;;
5153;SDS011;2595;53.584;10.084;2023-03-14T03:27:44;4.33;;;2.63;;
5153;SDS011;2595;53.584;10.084;2023-03-14T03:30:09;4.57;;;2.83;;
5153;SDS011;2595;53.584;10.084;2023-03-14T03:32:35;3.43;;;3.13;;
5153;SDS011;2595;53.584;10.084;2023-03-14T03:35:02;3.60;;;3.30;;
5153;SDS011;2595;53.584;10.084;2023-03-14T03:37:29;8.47;;;4.47;;
5153;SDS011;2595;53.584;10.084;2023-03-14T03:39:58;5.20;;;3.37;;
5153;SDS011;2595;53.584;10.084;2023-03-14T03:42:25;5.47;;;3.40;;
5153;SDS011;2595;53.584;10.084;2023-03-14T03:44:52;2.93;;;2.73;;
5153;SDS011;2595;53.584;10.084;2023-03-14T03:47:17;3.50;;;3.17;;
5153;SDS011;2595;53.584;10.084;2023-03-14T03:49:43;3.53;;;3.23;;
5153;SDS011;2595;53.584;10.084;2023-03-14T03:52:08;4.90;;;3.03;;
5153;SDS011;2595;53.584;10.084;2023-03-14T03:54:34;9.27;;;3.20;;
5153;SDS011;2595;53.584;10.084;2023-03-14T03:57:00;4.00;;;2.83;;
5153;SDS011;2595;53.584;10.084;2023-03-14T03:59:26;9.10;;;2.73;;
5153;SDS011;2595;53.584;10.084;2023-03-14T04:01:51;3.80;;;2.80;;
5153;SDS011;2595;53.584;10.084;2023-03-14T04:04:17;3.73;;;3.10;;
5153;SDS011;2595;53.584;10.084;2023-03-14T04:06:43;3.33;;;3.03;;
5153;SDS011;2595;53.584;10.084;2023-03-14T04:09:09;4.47;;;3.00;;
5153;SDS011;2595;53.584;10.084;2023-03-14T04:11:35;3.20;;;3.00;;
5153;SDS011;2595;53.584;10.084;2023-03-14T04:14:01;3.73;;;3.53;;
5153;SDS011;2595;53.584;10.084;2023-03-14T04:16:27;3.07;;;2.77;;
5153;SDS011;2595;53.584;10.084;2023-03-14T04:18:53;4.20;;;3.53;;
5153;SDS011;2595;53.584;10.084;2023-03-14T04:21:18;5.40;;;3.37;;
5153;SDS011;2595;53.584;10.084;2023-03-14T04:23:44;4.10;;;3.17;;
5153;SDS011;2595;53.584;10.084;2023-03-14T04:26:10;6.07;;;3.63;;
5153;SDS011;2595;53.584;10.084;2023-03-14T04:28:36;3.33;;;3.13;;
5153;SDS011;2595;53.584;10.084;2023-03-14T04:31:08;4.90;;;2.90;;
5153;SDS011;2595;53.584;10.084;2023-03-14T04:33:34;5.43;;;3.63;;
5153;SDS011;2595;53.584;10.084;2023-03-14T04:36:01;4.20;;;3.80;;
5153;SDS011;2595;53.584;10.084;2023-03-14T04:38:26;4.00;;;3.70;;
5153;SDS011;2595;53.584;10.084;2023-03-14T04:40:52;6.10;;;3.40;;
5153;SDS011;2595;53.584;10.084;2023-03-14T04:43:18;4.23;;;3.83;;
5153;SDS011;2595;53.584;10.084;2023-03-14T04:45:43;4.70;;;3.33;;
5153;SDS011;2595;53.584;10.084;2023-03-14T04:48:09;5.07;;;3.57;;
5153;SDS011;2595;53.584;10.084;2023-03-14T04:50:35;5.20;;;4.20;;
5153;SDS011;2595;53.584;10.084;2023-03-14T04:53:01;6.30;;;3.90;;
5153;SDS011;2595;53.584;10.084;2023-03-14T04:55:26;3.80;;;3.47;;
5153;SDS011;2595;53.584;10.084;2023-03-14T04:57:52;4.83;;;4.33;;
5153;SDS011;2595;53.584;10.084;2023-03-14T05:00:17;4.63;;;4.20;;
5153;SDS011;2595;53.584;10.084;2023-03-14T05:02:43;5.53;;;3.40;;
5153;SDS011;2595;53.584;10.084;2023-03-14T05:05:09;4.77;;;4.40;;
5153;SDS011;2595;53.584;10.084;2023-03-14T05:07:35;4.27;;;3.90;;
5153;SDS011;2595;53.584;10.084;2023-03-14T05:10:00;5.40;;;3.80;;
5153;SDS011;2595;53.584;10.084;2023-03-14T05:12:26;6.83;;;3.90;;
5153;SDS011;2595;53.584;10.084;2023-03-14T05:14:52;4.60;;;3.77;;
5153;SDS011;2595;53.584;10.084;2023-03-14T05:17:17;7.13;;;3.47;;
5153;SDS011;2595;53.584;10.084;2023-03-14T05:19:43;5.57;;;3.83;;
5153;SDS011;2595;53.584;10.084;2023-03-14T05:22:09;6.83;;;2.90;;
5153;SDS011;2595;53.584;10.084;2023-03-14T05:24:35;8.13;;;3.47;;
5153;SDS011;2595;53.584;10.084;2023-03-14T05:27:01;5.40;;;3.87;;
5153;SDS011;2595;53.584;10.084;2023-03-14T05:29:27;3.67;;;3.37;;
5153;SDS011;2595;53.584;10.084;2023-03-14T05:31:52;4.70;;;3.70;;
5153;SDS011;2595;53.584;10.084;2023-03-14T05:34:18;5.20;;;3.77;;
5153;SDS011;2595;53.584;10.084;2023-03-14T05:36:43;7.77;;;2.70;;
5153;SDS011;2595;53.584;10.084;2023-03-14T05:39:09;6.77;;;2.50;;
5153;SDS011;2595;53.584;10.084;2023-03-14T05:41:35;2.73;;;2.53;;
5153;SDS011;2595;53.584;10.084;2023-03-14T05:44:00;2.90;;;2.70;;
5153;SDS011;2595;53.584;10.084;2023-03-14T05:46:26;3.00;;;2.80;;
5153;SDS011;2595;53.584;10.084;2023-03-14T05:48:52;3.53;;;3.33;;
5153;SDS011;2595;53.584;10.084;2023-03-14T05:51:17;3.10;;;2.90;;
5153;SDS011;2595;53.584;10.084;2023-03-14T05:53:43;9.83;;;3.60;;
5153;SDS011;2595;53.584;10.084;2023-03-14T05:56:08;4.67;;;3.50;;
5153;SDS011;2595;53.584;10.084;2023-03-14T05:58:34;5.37;;;3.83;;
5153;SDS011;2595;53.584;10.084;2023-03-14T06:01:03;4.93;;;4.53;;
5153;SDS011;2595;53.584;10.084;2023-03-14T06:03:30;6.07;;;4.50;;
5153;SDS011;2595;53.584;10.084;2023-03-14T06:05:56;5.80;;;4.60;;
5153;SDS011;2595;53.584;10.084;2023-03-14T06:08:22;5.40;;;4.40;;
5153;SDS011;2595;53.584;10.084;2023-03-14T06:10:47;7.20;;;5.10;;
5153;SDS011;2595;53.584;10.084;2023-03-14T06:13:13;9.53;;;4.60;;
5153;SDS011;2595;53.584;10.084;2023-03-14T06:15:40;5.93;;;4.50;;
5153;SDS011;2595;53.584;10.084;2023-03-14T06:18:06;6.47;;;3.83;;
5153;SDS011;2595;53.584;10.084;2023-03-14T06:20:32;7.10;;;4.60;;
5153;SDS011;2595;53.584;10.084;2023-03-14T06:22:58;4.00;;;3.60;;
5153;SDS011;2595;53.584;10.084;2023-03-14T06:25:24;4.50;;;4.10;;
5153;SDS011;2595;53.584;10.084;2023-03-14T06:27:49;5.57;;;4.60;;
5153;SDS011;2595;53.584;10.084;2023-03-14T06:30:15;6.67;;;6.07;;
5153;SDS011;2595;53.584;10.084;2023-03-14T06:32:41;6.07;;;3.73;;
5153;SDS011;2595;53.584;10.084;2023-03-14T06:35:06;7.30;;;3.43;;
5153;SDS011;2595;53.584;10.084;2023-03-14T06:37:33;4.57;;;4.17;;
5153;SDS011;2595;53.584;10.084;2023-03-14T06:39:59;5.77;;;4.10;;
5153;SDS011;2595;53.584;10.084;2023-03-14T06:42:24;3.80;;;3.50;;
5153;SDS011;2595;53.584;10.084;2023-03-14T06:44:50;4.20;;;3.90;;
5153;SDS011;2595;53.584;10.084;2023-03-14T06:47:16;5.10;;;2.97;;
5153;SDS011;2595;53.584;10.084;2023-03-14T06:49:42;5.80;;;3.90;;
5153;SDS011;2595;53.584;10.084;2023-03-14T06:52:07;4.67;;;3.30;;
5153;SDS011;2595;53.584;10.084;2023-03-14T06:54:33;9.50;;;3.60;;
5153;SDS011;2595;53.584;10.084;2023-03-14T06:56:59;3.87;;;3.13;;
5153;SDS011;2595;53.584;10.084;2023-03-14T06:59:24;4.00;;;2.87;;
5153;SDS011;2595;53.584;10.084;2023-03-14T07:01:50;3.57;;;3.27;;
5153;SDS011;2595;53.584;10.084;2023-03-14T07:04:16;3.30;;;2.87;;
5153;SDS011;2595;53.584;10.084;2023-03-14T07:06:42;2.93;;;2.60;;
5153;SDS011;2595;53.584;10.084;2023-03-14T07:09:12;4.13;;;3.40;;
5153;SDS011;2595;53.584;10.084;2023-03-14T07:11:38;4.23;;;2.70;;
5153;SDS011;2595;53.584;10.084;2023-03-14T07:14:04;5.03;;;3.00;;
5153;SDS011;2595;53.584;10.084;2023-03-14T07:16:29;3.90;;;2.13;;
5153;SDS011;2595;53.584;10.084;2023-03-14T07:18:58;2.67;;;2.20;;
5153;SDS011;2595;53.584;10.084;2023-03-14T07:21:24;3.00;;;2.50;;
5153;SDS011;2595;53.584;10.084;2023-03-14T07:23:49;4.10;;;2.27;;
5153;SDS011;2595;53.584;10.084;2023-03-14T07:26:15;2.60;;;2.17;;
5153;SDS011;2595;53.584;10.084;2023-03-14T07:28:41;3.20;;;2.10;;
5153;SDS011;2595;53.584;10.084;2023-03-14T07:31:06;3.27;;;1.80;;
5153;SDS011;2595;53.584;10.084;2023-03-14T07:33:32;2.30;;;2.20;;
5153;SDS011;2595;53.584;10.084;2023-03-14T07:35:58;2.80;;;2.00;;
5153;SDS011;2595;53.584;10.084;2023-03-14T07:38:23;3.00;;;2.37;;
5153;SDS011;2595;53.584;10.084;2023-03-14T07:40:49;3.10;;;2.20;;
5153;SDS011;2595;53.584;10.084;2023-03-14T07:43:15;2.60;;;2.40;;
5153;SDS011;2595;53.584;10.084;2023-03-14T07:45:41;5.03;;;2.03;;
5153;SDS011;2595;53.584;10.084;2023-03-14T07:48:10;2.70;;;2.50;;
5153;SDS011;2595;53.584;10.084;2023-03-14T07:50:35;3.50;;;2.73;;
5153;SDS011;2595;53.584;10.084;2023-03-14T07:53:01;2.40;;;2.20;;
5153;SDS011;2595;53.584;10.084;2023-03-14T07:55:26;5.07;;;2.40;;
5153;SDS011;2595;53.584;10.084;2023-03-14T07:57:52;4.93;;;2.03;;
5153;SDS011;2595;53.584;10.084;2023-03-14T08:00:17;3.07;;;1.70;;
5153;SDS011;2595;53.584;10.084;2023-03-14T08:02:43;2.43;;;1.73;;
5153;SDS011;2595;53.584;10.084;2023-03-14T08:05:09;1.50;;;1.40;;
5153;SDS011;2595;53.584;10.084;2023-03-14T08:07:35;2.80;;;1.80;;
5153;SDS011;2595;53.584;10.084;2023-03-14T08:10:01;4.90;;;2.47;;
5153;SDS011;2595;53.584;10.084;2023-03-14T08:12:27;3.17;;;1.63;;
5153;SDS011;2595;53.584;10.084;2023-03-14T08:14:53;8.73;;;1.80;;
5153;SDS011;2595;53.584;10.084;2023-03-14T08:17:18;2.27;;;2.07;;
5153;SDS011;2595;53.584;10.084;2023-03-14T08:19:44;5.13;;;2.37;;
5153;SDS011;2595;53.584;10.084;2023-03-14T08:22:09;2.23;;;1.93;;
5153;SDS011;2595;53.584;10.084;2023-03-14T08:24:35;2.43;;;2.00;;
5153;SDS011;2595;53.584;10.084;2023-03-14T08:27:01;1.97;;;1.53;;
5153;SDS011;2595;53.584;10.084;2023-03-14T08:29:26;1.90;;;1.80;;
5153;SDS011;2595;53.584;10.084;2023-03-14T08:31:52;2.13;;;1.93;;
5153;SDS011;2595;53.584;10.084;2023-03-14T08:34:18;3.40;;;2.33;;
5153;SDS011;2595;53.584;10.084;2023-03-14T08:36:44;4.80;;;2.40;;
5153;SDS011;2595;53.584;10.084;2023-03-14T08:39:10;3.03;;;2.83;;
5153;SDS011;2595;53.584;10.084;2023-03-14T08:41:35;3.63;;;1.87;;
5153;SDS011;2595;53.584;10.084;2023-03-14T08:44:09;2.53;;;1.87;;
5153;SDS011;2595;53.584;10.084;2023-03-14T08:46:38;3.60;;;2.13;;
5153;SDS011;2595;53.584;10.084;2023-03-14T08:49:04;11.63;;;2.27;;
5153;SDS011;2595;53.584;10.084;2023-03-14T08:51:29;2.97;;;2.53;;
5153;SDS011;2595;53.584;10.084;2023-03-14T08:53:55;7.60;;;2.60;;
5153;SDS011;2595;53.584;10.084;2023-03-14T08:56:20;8.13;;;4.53;;
5153;SDS011;2595;53.584;10.084;2023-03-14T08:58:46;3.70;;;3.40;;
5153;SDS011;2595;53.584;10.084;2023-03-14T09:01:12;3.30;;;2.70;;
5153;SDS011;2595;53.584;10.084;2023-03-14T09:03:37;3.50;;;3.20;;
5153;SDS011;2595;53.584;10.084;2023-03-14T09:06:04;7.00;;;2.73;;
5153;SDS011;2595;53.584;10.084;2023-03-14T09:08:33;4.53;;;3.60;;
5153;SDS011;2595;53.584;10.084;2023-03-14T09:10:59;4.67;;;3.60;;
5153;SDS011;2595;53.584;10.084;2023-03-14T09:13:25;10.50;;;3.37;;
5153;SDS011;2595;53.584;10.084;2023-03-14T09:15:54;3.60;;;3.00;;
5153;SDS011;2595;53.584;10.084;2023-03-14T09:18:21;3.90;;;3.50;;
5153;SDS011;2595;53.584;10.084;2023-03-14T09:20:47;7.10;;;4.33;;
5153;SDS011;2595;53.584;10.084;2023-03-14T09:23:13;3.77;;;3.47;;
5153;SDS011;2595;53.584;10.084;2023-03-14T09:25:39;4.20;;;3.60;;
5153;SDS011;2595;53.584;10.084;2023-03-14T09:28:05;4.57;;;3.20;;
5153;SDS011;2595;53.584;10.084;2023-03-14T09:30:31;5.73;;;3.70;;
5153;SDS011;2595;53.584;10.084;2023-03-14T09:32:57;4.33;;;4.00;;
5153;SDS011;2595;53.584;10.084;2023-03-14T09:35:23;5.77;;;3.93;;
5153;SDS011;2595;53.584;10.084;2023-03-14T09:37:49;5.30;;;4.10;;
5153;SDS011;2595;53.584;10.084;2023-03-14T09:40:16;14.03;;;4.07;;
5153;SDS011;2595;53.584;10.084;2023-03-14T09:42:43;5.20;;;4.23;;
5153;SDS011;2595;53.584;10.084;2023-03-14T09:45:12;5.57;;;4.50;;
5153;SDS011;2595;53.584;10.084;2023-03-14T09:47:43;6.93;;;5.60;;
5153;SDS011;2595;53.584;10.084;2023-03-14T09:50:12;4.47;;;3.73;;
5153;SDS011;2595;53.584;10.084;2023-03-14T09:52:40;5.00;;;4.50;;
5153;SDS011;2595;53.584;10.084;2023-03-14T09:55:15;5.20;;;4.83;;
5153;SDS011;2595;53.584;10.084;2023-03-14T09:57:44;7.30;;;4.07;;
5153;SDS011;2595;53.584;10.084;2023-03-14T10:02:46;2.40;;;2.20;;
5153;SDS011;2595;53.584;10.084;2023-03-14T10:05:27;1.30;;;1.20;;
5153;SDS011;2595;53.584;10.084;2023-03-14T10:07:54;1.87;;;1.07;;
5153;SDS011;2595;53.584;10.084;2023-03-14T10:10:21;2.60;;;1.10;;
5153;SDS011;2595;53.584;10.084;2023-03-14T10:12:55;0.90;;;0.80;;
5153;SDS011;2595;53.584;10.084;2023-03-14T10:15:30;1.30;;;1.00;;
5153;SDS011;2595;53.584;10.084;2023-03-14T10:17:59;1.20;;;1.07;;
5153;SDS011;2595;53.584;10.084;2023-03-14T10:23:02;3.90;;;1.47;;
5153;SDS011;2595;53.584;10.084;2023-03-14T10:25:30;1.73;;;1.37;;
5153;SDS011;2595;53.584;10.084;2023-03-14T10:28:00;0.97;;;0.97;;
5153;SDS011;2595;53.584;10.084;2023-03-14T10:33:09;1.23;;;1.13;;
5153;SDS011;2595;53.584;10.084;2023-03-14T10:35:46;0.80;;;0.80;;
5153;SDS011;2595;53.584;10.084;2023-03-14T10:38:17;1.33;;;0.80;;
5153;SDS011;2595;53.584;10.084;2023-03-14T10:40:47;0.90;;;0.90;;
5153;SDS011;2595;53.584;10.084;2023-03-14T10:43:15;0.73;;;0.73;;
5153;SDS011;2595;53.584;10.084;2023-03-14T10:45:47;1.60;;;0.93;;
5153;SDS011;2595;53.584;10.084;2023-03-14T10:48:19;2.50;;;1.00;;
5153;SDS011;2595;53.584;10.084;2023-03-14T10:53:42;1.20;;;0.63;;
5153;SDS011;2595;53.584;10.084;2023-03-14T10:56:33;1.43;;;0.93;;
5153;SDS011;2595;53.584;10.084;2023-03-14T10:59:01;0.90;;;0.77;;
5153;SDS011;2595;53.584;10.084;2023-03-14T11:07:22;1.10;;;0.80;;
5153;SDS011;2595;53.584;10.084;2023-03-14T11:15:22;0.70;;;0.70;;
5153;SDS011;2595;53.584;10.084;2023-03-14T11:17:59;1.17;;;0.83;;
5153;SDS011;2595;53.584;10.084;2023-03-14T11:23:55;0.60;;;0.60;;
5153;SDS011;2595;53.584;10.084;2023-03-14T11:31:54;0.97;;;0.70;;
5153;SDS011;2595;53.584;10.084;2023-03-14T11:34:29;0.87;;;0.80;;
5153;SDS011;2595;53.584;10.084;2023-03-14T11:37:14;1.50;;;1.00;;
5153;SDS011;2595;53.584;10.084;2023-03-14T11:39:47;1.47;;;1.00;;
5153;SDS011;2595;53.584;10.084;2023-03-14T11:42:37;1.80;;;0.83;;
5153;SDS011;2595;53.584;10.084;2023-03-14T11:45:12;5.33;;;1.00;;
5153;SDS011;2595;53.584;10.084;2023-03-14T11:47:45;1.40;;;1.20;;
5153;SDS011;2595;53.584;10.084;2023-03-14T11:50:25;1.13;;;1.03;;
5153;SDS011;2595;53.584;10.084;2023-03-14T11:52:56;1.53;;;1.43;;
5153;SDS011;2595;53.584;10.084;2023-03-14T11:55:39;1.33;;;1.00;;
5153;SDS011;2595;53.584;10.084;2023-03-14T12:01:06;1.17;;;0.83;;
5153;SDS011;2595;53.584;10.084;2023-03-14T12:03:42;1.70;;;0.97;;
5153;SDS011;2595;53.584;10.084;2023-03-14T12:06:22;1.93;;;1.00;;
5153;SDS011;2595;53.584;10.084;2023-03-14T12:09:19;2.50;;;1.00;;
5153;SDS011;2595;53.584;10.084;2023-03-14T12:11:54;2.90;;;0.97;;
5153;SDS011;2595;53.584;10.084;2023-03-14T12:14:29;1.90;;;1.27;;
5153;SDS011;2595;53.584;10.084;2023-03-14T12:19:38;7.53;;;1.87;;
5153;SDS011;2595;53.584;10.084;2023-03-14T12:22:12;2.10;;;1.30;;
5153;SDS011;2595;53.584;10.084;2023-03-14T12:30:17;2.43;;;1.30;;
5153;SDS011;2595;53.584;10.084;2023-03-14T12:35:52;12.50;;;1.60;;
5153;SDS011;2595;53.584;10.084;2023-03-14T12:38:27;5.50;;;1.03;;
5153;SDS011;2595;53.584;10.084;2023-03-14T12:41:14;4.27;;;1.87;;
5153;SDS011;2595;53.584;10.084;2023-03-14T12:49:43;4.10;;;1.87;;
5153;SDS011;2595;53.584;10.084;2023-03-14T12:52:19;7.00;;;2.33;;
5153;SDS011;2595;53.584;10.084;2023-03-14T12:54:57;5.60;;;1.67;;
5153;SDS011;2595;53.584;10.084;2023-03-14T13:00:18;2.90;;;1.33;;
5153;SDS011;2595;53.584;10.084;2023-03-14T13:02:46;5.93;;;2.37;;
5153;SDS011;2595;53.584;10.084;2023-03-14T13:13:09;5.93;;;1.70;;
5153;SDS011;2595;53.584;10.084;2023-03-14T13:15:42;4.33;;;3.93;;
5153;SDS011;2595;53.584;10.084;2023-03-14T13:18:11;3.93;;;1.83;;
5153;SDS011;2595;53.584;10.084;2023-03-14T13:20:50;12.03;;;3.50;;
5153;SDS011;2595;53.584;10.084;2023-03-14T13:23:24;5.33;;;1.70;;
5153;SDS011;2595;53.584;10.084;2023-03-14T13:25:51;6.43;;;2.20;;
5153;SDS011;2595;53.584;10.084;2023-03-14T13:28:17;8.57;;;1.83;;
5153;SDS011;2595;53.584;10.084;2023-03-14T13:30:45;5.90;;;1.63;;
5153;SDS011;2595;53.584;10.084;2023-03-14T13:33:13;8.37;;;1.60;;
5153;SDS011;2595;53.584;10.084;2023-03-14T13:35:45;9.93;;;2.87;;
5153;SDS011;2595;53.584;10.084;2023-03-14T13:38:15;5.80;;;2.10;;
5153;SDS011;2595;53.584;10.084;2023-03-14T13:40:43;7.33;;;1.93;;
5153;SDS011;2595;53.584;10.084;2023-03-14T13:45:47;8.30;;;1.80;;
5153;SDS011;2595;53.584;10.084;2023-03-14T13:48:13;4.30;;;2.37;;
5153;SDS011;2595;53.584;10.084;2023-03-14T13:50:44;3.03;;;1.30;;
5153;SDS011;2595;53.584;10.084;2023-03-14T13:53:46;4.20;;;1.37;;
5153;SDS011;2595;53.584;10.084;2023-03-14T13:56:11;4.17;;;1.60;;
5153;SDS011;2595;53.584;10.084;2023-03-14T13:58:38;3.23;;;1.30;;
5153;SDS011;2595;53.584;10.084;2023-03-14T14:01:25;4.37;;;1.40;;
5153;SDS011;2595;53.584;10.084;2023-03-14T14:03:52;7.23;;;2.10;;
5153;SDS011;2595;53.584;10.084;2023-03-14T14:08:48;3.17;;;1.23;;
5153;SDS011;2595;53.584;10.084;2023-03-14T14:11:37;4.20;;;1.60;;
5153;SDS011;2595;53.584;10.084;2023-03-14T14:14:16;9.93;;;1.90;;
5153;SDS011;2595;53.584;10.084;2023-03-14T14:16:48;4.57;;;2.00;;
5153;SDS011;2595;53.584;10.084;2023-03-14T14:19:16;6.07;;;1.30;;
5153;SDS011;2595;53.584;10.084;2023-03-14T14:21:44;2.17;;;1.90;;
5153;SDS011;2595;53.584;10.084;2023-03-14T14:24:13;3.33;;;1.47;;
5153;SDS011;2595;53.584;10.084;2023-03-14T14:26:40;5.40;;;1.80;;
5153;SDS011;2595;53.584;10.084;2023-03-14T14:34:26;12.00;;;2.57;;
5153;SDS011;2595;53.584;10.084;2023-03-14T14:36:52;2.93;;;1.70;;
5153;SDS011;2595;53.584;10.084;2023-03-14T14:39:19;8.30;;;1.73;;
5153;SDS011;2595;53.584;10.084;2023-03-14T14:41:48;9.63;;;2.03;;
5153;SDS011;2595;53.584;10.084;2023-03-14T14:44:17;4.03;;;1.47;;
5153;SDS011;2595;53.584;10.084;2023-03-14T14:46:52;2.93;;;1.57;;
5153;SDS011;2595;53.584;10.084;2023-03-14T14:49:19;2.83;;;1.23;;
5153;SDS011;2595;53.584;10.084;2023-03-14T14:51:49;4.70;;;1.60;;
5153;SDS011;2595;53.584;10.084;2023-03-14T14:54:16;1.70;;;0.97;;
5153;SDS011;2595;53.584;10.084;2023-03-14T14:56:51;5.13;;;1.60;;
5153;SDS011;2595;53.584;10.084;2023-03-14T14:59:27;5.90;;;1.40;;
5153;SDS011;2595;53.584;10.084;2023-03-14T15:01:57;1.80;;;1.60;;
5153;SDS011;2595;53.584;10.084;2023-03-14T15:04:24;2.30;;;1.50;;
5153;SDS011;2595;53.584;10.084;2023-03-14T15:06:50;5.07;;;1.93;;
5153;SDS011;2595;53.584;10.084;2023-03-14T15:09:18;5.47;;;1.70;;
5153;SDS011;2595;53.584;10.084;2023-03-14T15:11:44;5.40;;;1.03;;
5153;SDS011;2595;53.584;10.084;2023-03-14T15:14:11;5.03;;;1.20;;
5153;SDS011;2595;53.584;10.084;2023-03-14T15:16:36;2.20;;;1.20;;
5153;SDS011;2595;53.584;10.084;2023-03-14T15:19:08;3.70;;;2.00;;
5153;SDS011;2595;53.584;10.084;2023-03-14T15:21:36;2.43;;;1.40;;
5153;SDS011;2595;53.584;10.084;2023-03-14T15:24:03;3.60;;;1.57;;
5153;SDS011;2595;53.584;10.084;2023-03-14T15:26:30;3.00;;;1.60;;
5153;SDS011;2595;53.584;10.084;2023-03-14T15:28:56;8.60;;;1.53;;
5153;SDS011;2595;53.584;10.084;2023-03-14T15:31:21;2.40;;;1.30;;
5153;SDS011;2595;53.584;10.084;2023-03-14T15:33:47;3.87;;;2.13;;
5153;SDS011;2595;53.584;10.084;2023-03-14T15:36:19;3.87;;;1.70;;
5153;SDS011;2595;53.584;10.084;2023-03-14T15:38:53;9.63;;;1.70;;
5153;SDS011;2595;53.584;10.084;2023-03-14T15:41:20;10.20;;;1.77;;
5153;SDS011;2595;53.584;10.084;2023-03-14T15:43:46;5.73;;;1.40;;
5153;SDS011;2595;53.584;10.084;2023-03-14T15:46:12;3.63;;;1.83;;
5153;SDS011;2595;53.584;10.084;2023-03-14T15:48:39;2.13;;;1.37;;
5153;SDS011;2595;53.584;10.084;2023-03-14T15:51:05;2.57;;;1.37;;
5153;SDS011;2595;53.584;10.084;2023-03-14T15:53:31;2.67;;;1.93;;
5153;SDS011;2595;53.584;10.084;2023-03-14T15:55:57;1.80;;;1.40;;
5153;SDS011;2595;53.584;10.084;2023-03-14T15:58:23;6.43;;;1.53;;
5153;SDS011;2595;53.584;10.084;2023-03-14T16:00:49;5.20;;;1.60;;
5153;SDS011;2595;53.584;10.084;2023-03-14T16:03:15;4.17;;;1.90;;
5153;SDS011;2595;53.584;10.084;2023-03-14T16:05:41;3.23;;;1.30;;
5153;SDS011;2595;53.584;10.084;2023-03-14T16:08:06;8.70;;;1.70;;
5153;SDS011;2595;53.584;10.084;2023-03-14T16:10:32;7.73;;;1.23;;
5153;SDS011;2595;53.584;10.084;2023-03-14T16:12:58;3.73;;;1.60;;
5153;SDS011;2595;53.584;10.084;2023-03-14T16:15:24;8.73;;;1.90;;
5153;SDS011;2595;53.584;10.084;2023-03-14T16:17:53;3.60;;;1.40;;
5153;SDS011;2595;53.584;10.084;2023-03-14T16:20:19;9.27;;;2.27;;
5153;SDS011;2595;53.584;10.084;2023-03-14T16:22:45;5.67;;;1.63;;
5153;SDS011;2595;53.584;10.084;2023-03-14T16:25:11;4.37;;;1.73;;